Time;durP1;ratioP1;P1;durP2;ratioP2;P2;SDS_P1;SDS_P2;PMS_P1;PMS_P2;Temp;Humidity;BMP_temperature;BMP_pressure;BME280_temperature;BME280_humidity;BME280_pressure;Samples;Min_cycle;Max_cycle;Signal;HPM_P1;HPM_P2
2023/01/03 00:01:10;;;;;;;43.53;18.30;;;;;;;6.10;100.00;102429.03;4982873;28;21339;-95
2023/01/03 00:03:35;;;;;;;39.03;15.20;;;;;;;5.97;100.00;102415.97;4983045;28;20376;-94
2023/01/03 00:06:00;;;;;;;47.53;17.70;;;;;;;6.18;100.00;102450.53;4986874;28;20549;-94
2023/01/03 00:08:28;;;;;;;41.70;14.65;;;;;;;5.98;100.00;102409.25;4989047;28;20039;-94
2023/01/03 00:10:53;;;;;;;49.28;18.00;;;;;;;5.89;100.00;102409.94;4990948;28;20041;-94
2023/01/03 00:13:18;;;;;;;42.58;17.88;;;;;;;5.96;100.00;102403.19;4989370;28;20026;-94
2023/01/03 00:15:44;;;;;;;48.78;15.52;;;;;;;6.03;100.00;102428.59;4987444;28;20037;-93
2023/01/03 00:18:09;;;;;;;50.63;17.25;;;;;;;6.23;100.00;102441.28;4988391;28;20108;-94
2023/01/03 00:20:35;;;;;;;42.00;17.13;;;;;;;5.95;100.00;102404.31;4991995;28;20022;-95
2023/01/03 00:23:01;;;;;;;41.25;15.85;;;;;;;5.90;100.00;102410.75;4991647;28;20022;-94
2023/01/03 00:25:27;;;;;;;40.85;16.48;;;;;;;5.83;100.00;102422.28;5005876;28;20084;-93
2023/01/03 00:27:52;;;;;;;85.80;19.98;;;;;;;5.96;100.00;102430.97;4995784;28;20026;-95
2023/01/03 00:30:18;;;;;;;60.10;19.65;;;;;;;5.93;100.00;102437.94;4991058;28;20117;-94
2023/01/03 00:32:44;;;;;;;42.40;18.05;;;;;;;6.03;100.00;102443.34;4994492;28;20026;-94
2023/01/03 00:35:09;;;;;;;50.30;18.27;;;;;;;5.75;100.00;102414.66;4991915;28;20079;-95
2023/01/03 00:37:34;;;;;;;60.42;19.80;;;;;;;5.98;100.00;102446.19;5007075;28;20052;-92
2023/01/03 00:40:00;;;;;;;63.50;19.98;;;;;;;5.76;100.00;102435.78;4991692;28;20443;-93
2023/01/03 00:42:25;;;;;;;53.05;21.23;;;;;;;5.94;100.00;102444.31;5004655;28;20034;-94
2023/01/03 00:44:51;;;;;;;49.28;16.90;;;;;;;5.88;100.00;102429.69;4990560;28;20123;-95
2023/01/03 00:47:16;;;;;;;50.17;19.30;;;;;;;5.81;100.00;102432.06;4990260;28;20038;-93
2023/01/03 00:49:41;;;;;;;50.15;17.92;;;;;;;5.89;100.00;102440.50;4988656;28;20041;-94
2023/01/03 00:52:07;;;;;;;52.40;20.10;;;;;;;6.02;100.00;102463.09;5005295;28;20526;-94
2023/01/03 00:54:32;;;;;;;57.85;20.48;;;;;;;5.89;100.00;102443.28;4988138;28;20033;-93
2023/01/03 00:56:58;;;;;;;60.20;20.33;;;;;;;5.97;100.00;102460.44;4993522;28;20077;-93
2023/01/03 00:59:23;;;;;;;69.80;24.00;;;;;;;5.94;100.00;102466.56;4988512;28;20038;-94
2023/01/03 01:01:54;;;;;;;60.95;22.38;;;;;;;5.81;100.00;102446.78;4987180;28;20106;-95
2023/01/03 01:04:39;;;;;;;55.90;20.40;;;;;;;5.84;100.00;102462.00;4988603;28;20109;-94
2023/01/03 01:07:04;;;;;;;61.05;21.98;;;;;;;5.81;100.00;102466.22;4989395;28;20058;-94
2023/01/03 01:09:32;;;;;;;52.15;19.83;;;;;;;5.72;100.00;102453.38;5002059;28;20022;-94
2023/01/03 01:11:58;;;;;;;67.35;24.58;;;;;;;5.66;100.00;102444.28;5006864;28;20058;-94
2023/01/03 01:14:26;;;;;;;68.80;24.17;;;;;;;5.70;100.00;102456.44;4994021;28;20045;-95
2023/01/03 01:16:57;;;;;;;60.10;21.27;;;;;;;5.79;100.00;102487.94;4992479;28;20493;-94
2023/01/03 01:19:26;;;;;;;59.13;20.65;;;;;;;5.62;100.00;102469.06;5003515;28;20121;-94
2023/01/03 01:21:51;;;;;;;62.90;24.42;;;;;;;5.54;100.00;102455.06;4993245;28;20018;-94
2023/01/03 01:24:17;;;;;;;66.72;22.88;;;;;;;5.56;100.00;102452.81;4991770;28;20485;-95
2023/01/03 01:26:42;;;;;;;70.03;25.27;;;;;;;5.56;100.00;102463.91;4993041;28;20026;-94
2023/01/03 01:29:10;;;;;;;71.35;23.95;;;;;;;5.77;100.00;102501.31;4990985;28;20038;-94
2023/01/03 01:31:36;;;;;;;59.00;22.63;;;;;;;5.64;100.00;102485.44;4988786;28;20152;-93
2023/01/03 01:34:02;;;;;;;66.47;25.55;;;;;;;5.66;100.00;102497.91;4992263;28;20018;-93
2023/01/03 01:36:36;;;;;;;65.70;22.52;;;;;;;5.62;100.00;102509.94;4993890;28;20027;-94
2023/01/03 01:39:05;;;;;;;67.97;24.00;;;;;;;5.62;100.00;102504.38;4989290;28;20454;-94
2023/01/03 01:44:56;;;;;;;70.85;24.20;;;;;;;5.70;100.00;102507.28;4991950;28;20068;-93
2023/01/03 01:47:31;;;;;;;77.40;23.95;;;;;;;5.67;100.00;102509.81;4998858;28;20022;-94
2023/01/03 01:50:12;;;;;;;72.97;25.20;;;;;;;5.61;100.00;102509.13;5007718;28;20061;-95
2023/01/03 01:52:42;;;;;;;65.40;21.73;;;;;;;5.62;100.00;102515.47;4988044;28;20502;-91
2023/01/03 01:55:12;;;;;;;73.82;25.45;;;;;;;5.43;100.00;102496.91;4986047;28;20486;-94
2023/01/03 01:57:40;;;;;;;75.57;24.67;;;;;;;5.57;100.00;102515.59;4989051;28;20034;-93
2023/01/03 02:00:07;;;;;;;70.55;26.20;;;;;;;5.59;100.00;102516.09;4993964;28;20057;-93
2023/01/03 02:02:33;;;;;;;61.08;24.50;;;;;;;5.45;100.00;102516.84;5002523;28;20022;-93
2023/01/03 02:04:59;;;;;;;76.90;29.17;;;;;;;5.24;100.00;102504.44;4986649;28;20478;-93
2023/01/03 02:07:25;;;;;;;73.50;27.17;;;;;;;5.22;100.00;102490.84;4987890;28;20030;-94
2023/01/03 02:09:55;;;;;;;74.35;26.85;;;;;;;5.36;100.00;102499.25;4989639;28;20038;-93
2023/01/03 02:15:31;;;;;;;78.03;25.85;;;;;;;5.57;100.00;102524.72;4989278;28;20037;-94
2023/01/03 02:18:08;;;;;;;75.45;26.27;;;;;;;5.58;100.00;102525.56;5001885;28;20030;-94
2023/01/03 02:20:47;;;;;;;72.13;28.83;;;;;;;5.55;100.00;102531.72;5001202;28;20040;-94
2023/01/03 02:23:37;;;;;;;71.45;23.67;;;;;;;5.41;100.00;102540.81;4997818;28;20015;-94
2023/01/03 02:26:15;;;;;;;67.45;26.52;;;;;;;5.47;100.00;102536.81;5000447;28;20042;-91
2023/01/03 02:29:19;;;;;;;85.28;27.02;;;;;;;5.34;100.00;102511.78;4995995;28;20382;-93
2023/01/03 02:31:54;;;;;;;73.45;26.40;;;;;;;5.51;100.00;102537.06;4998638;28;20049;-92
2023/01/03 02:34:22;;;;;;;75.55;25.02;;;;;;;5.44;100.00;102540.22;4991873;28;20026;-92
2023/01/03 02:37:20;;;;;;;75.38;26.17;;;;;;;5.48;100.00;102538.50;5002533;28;20037;-94
2023/01/03 02:39:53;;;;;;;69.88;25.13;;;;;;;5.34;100.00;102523.72;4971794;28;20081;-93
2023/01/03 02:42:57;;;;;;;71.28;24.50;;;;;;;5.27;100.00;102514.94;4988651;28;20113;-93
2023/01/03 02:45:58;;;;;;;62.85;23.25;;;;;;;5.28;100.00;102538.81;4981321;28;20042;-93
2023/01/03 02:49:04;;;;;;;63.97;24.35;;;;;;;5.35;100.00;102530.09;5004160;28;20536;-93
2023/01/03 02:51:42;;;;;;;65.63;26.17;;;;;;;5.37;100.00;102528.66;4986190;28;20435;-92
2023/01/03 02:54:12;;;;;;;68.45;25.70;;;;;;;5.02;100.00;102489.22;4986017;28;20497;-94
2023/01/03 02:56:53;;;;;;;69.53;24.60;;;;;;;5.25;100.00;102528.31;4983974;28;20038;-94
2023/01/03 02:59:48;;;;;;;73.10;24.85;;;;;;;5.21;100.00;102527.25;4986326;28;20057;-93
2023/01/03 03:02:16;;;;;;;70.53;27.20;;;;;;;5.19;100.00;102524.78;5002655;28;20030;-93
2023/01/03 03:04:44;;;;;;;71.80;26.45;;;;;;;5.20;100.00;102520.88;4982642;28;20026;-92
2023/01/03 03:07:23;;;;;;;61.90;22.42;;;;;;;5.07;100.00;102521.63;5002392;28;20047;-92
2023/01/03 03:15:26;;;;;;;73.18;24.52;;;;;;;5.03;100.00;102493.66;4990550;28;20061;-93
2023/01/03 03:17:58;;;;;;;59.80;25.80;;;;;;;4.99;100.00;102503.69;4985037;28;20100;-94
2023/01/03 03:26:05;;;;;;;65.28;23.75;;;;;;;5.20;100.00;102525.59;4987792;28;20499;-95
2023/01/03 03:28:37;;;;;;;62.15;24.30;;;;;;;5.14;100.00;102515.69;4990488;28;20035;-93
2023/01/03 03:31:09;;;;;;;63.22;24.92;;;;;;;4.91;100.00;102490.50;4994266;28;20026;-94
2023/01/03 03:33:41;;;;;;;64.97;27.10;;;;;;;4.87;100.00;102475.59;4986432;28;20022;-93
2023/01/03 03:36:32;;;;;;;66.00;26.30;;;;;;;5.01;100.00;102492.31;4990022;28;20102;-93
2023/01/03 03:38:58;;;;;;;68.20;26.00;;;;;;;5.16;100.00;102510.66;4977891;28;20038;-94
2023/01/03 03:47:25;;;;;;;59.53;24.80;;;;;;;5.02;100.00;102519.75;4992572;28;20117;-93
2023/01/03 03:49:53;;;;;;;60.85;21.13;;;;;;;5.00;100.00;102510.91;5002439;28;20034;-94
2023/01/03 03:52:25;;;;;;;74.07;25.67;;;;;;;4.94;100.00;102501.00;4983692;28;20027;-95
2023/01/03 03:55:02;;;;;;;63.97;24.20;;;;;;;5.01;100.00;102495.91;4989255;28;20395;-94
2023/01/03 03:57:42;;;;;;;55.25;24.00;;;;;;;5.05;100.00;102519.16;4990053;28;20022;-94
2023/01/03 04:00:14;;;;;;;55.63;21.80;;;;;;;4.74;100.00;102487.41;5007098;28;20018;-93
2023/01/03 04:02:42;;;;;;;65.57;26.40;;;;;;;5.04;100.00;102525.84;4995849;28;20033;-94
2023/01/03 04:05:10;;;;;;;59.95;23.48;;;;;;;5.08;100.00;102521.34;4990975;28;20027;-94
2023/01/03 04:07:36;;;;;;;59.08;21.25;;;;;;;4.98;100.00;102512.34;4994811;28;20475;-93
2023/01/03 04:10:03;;;;;;;54.50;22.05;;;;;;;4.79;100.00;102504.00;4995252;28;20470;-95
2023/01/03 04:12:29;;;;;;;61.58;23.08;;;;;;;4.96;100.00;102526.50;4993592;28;20026;-93
2023/01/03 04:14:54;;;;;;;51.83;23.65;;;;;;;4.94;100.00;102516.84;4988564;28;20029;-94
2023/01/03 04:17:19;;;;;;;60.13;22.92;;;;;;;5.05;100.00;102538.56;4988273;28;20034;-93
2023/01/03 04:19:45;;;;;;;60.72;23.95;;;;;;;5.05;100.00;102544.13;4987149;28;20395;-94
2023/01/03 04:22:10;;;;;;;60.80;22.02;;;;;;;4.88;100.00;102549.38;4985552;28;20028;-93
2023/01/03 04:24:36;;;;;;;54.55;22.08;;;;;;;4.98;100.00;102552.00;4986634;28;20490;-92
2023/01/03 04:27:01;;;;;;;63.35;24.98;;;;;;;4.91;100.00;102557.09;4986926;28;20058;-93
2023/01/03 04:29:26;;;;;;;57.10;24.23;;;;;;;5.01;100.00;102556.94;4990297;28;20527;-93
2023/01/03 04:31:52;;;;;;;59.15;24.70;;;;;;;4.74;100.00;102537.34;4985648;28;20034;-93
2023/01/03 04:34:17;;;;;;;57.13;23.42;;;;;;;4.88;100.00;102547.41;4982078;28;20026;-92
2023/01/03 04:36:42;;;;;;;52.55;22.08;;;;;;;4.95;100.00;102547.03;4985612;28;20158;-92
2023/01/03 04:39:08;;;;;;;60.55;24.10;;;;;;;4.91;100.00;102551.53;4984685;28;21285;-93
2023/01/03 04:41:33;;;;;;;54.30;21.02;;;;;;;4.88;100.00;102552.97;4987219;28;20141;-93
2023/01/03 04:44:02;;;;;;;56.05;23.30;;;;;;;4.75;100.00;102545.38;4989701;28;20096;-94
2023/01/03 04:46:33;;;;;;;54.60;23.65;;;;;;;4.82;100.00;102542.22;4987444;28;20168;-93
2023/01/03 04:48:59;;;;;;;57.08;23.20;;;;;;;4.71;100.00;102551.81;4985815;28;20693;-93
2023/01/03 04:51:25;;;;;;;61.42;25.00;;;;;;;4.61;100.00;102536.94;4986840;28;20432;-94
2023/01/03 04:53:50;;;;;;;58.85;22.58;;;;;;;4.65;100.00;102535.22;4984276;28;20030;-95
2023/01/03 04:56:16;;;;;;;58.33;24.63;;;;;;;4.67;100.00;102557.94;4999267;28;20345;-91
2023/01/03 04:58:41;;;;;;;63.63;24.52;;;;;;;4.74;100.00;102562.31;4983199;28;21528;-93
2023/01/03 05:01:07;;;;;;;55.08;22.70;;;;;;;4.50;100.00;102535.44;4986727;28;20029;-92
2023/01/03 05:03:33;;;;;;;65.05;26.90;;;;;;;4.60;100.00;102546.41;4988316;28;20022;-91
2023/01/03 05:06:03;;;;;;;59.97;25.20;;;;;;;4.59;100.00;102561.38;4985819;28;20057;-94
2023/01/03 05:08:28;;;;;;;54.88;22.65;;;;;;;4.53;100.00;102534.00;4988291;28;20444;-93
2023/01/03 05:10:53;;;;;;;61.08;25.13;;;;;;;4.47;100.00;102553.50;4987157;28;20050;-92
2023/01/03 05:13:19;;;;;;;61.03;25.38;;;;;;;4.45;100.00;102518.88;5005488;28;20033;-91
2023/01/03 05:15:44;;;;;;;61.95;27.27;;;;;;;4.24;100.00;102549.59;5002729;28;20038;-94
2023/01/03 05:18:10;;;;;;;76.57;28.58;;;;;;;4.47;100.00;102552.69;4984936;28;20035;-94
2023/01/03 05:26:12;;;;;;;65.70;28.15;;;;;;;4.46;100.00;102556.56;4983654;28;20092;-93
2023/01/03 05:28:38;;;;;;;64.40;26.33;;;;;;;4.66;100.00;102561.03;5000771;28;20094;-93
2023/01/03 05:31:04;;;;;;;62.58;26.88;;;;;;;4.31;100.00;102553.97;4990072;28;20026;-94
2023/01/03 05:33:29;;;;;;;63.47;28.52;;;;;;;3.96;100.00;102553.19;4985731;28;20038;-92
2023/01/03 05:35:54;;;;;;;63.75;29.40;;;;;;;4.22;100.00;102556.56;4981678;28;20022;-94
2023/01/03 05:38:22;;;;;;;61.70;26.10;;;;;;;4.43;100.00;102551.63;4980339;28;20026;-93
2023/01/03 05:40:48;;;;;;;65.45;25.45;;;;;;;4.18;100.00;102561.84;4982985;28;20072;-93
2023/01/03 05:43:13;;;;;;;63.80;25.50;;;;;;;3.97;100.00;102561.22;4981204;28;20553;-94
2023/01/03 05:45:39;;;;;;;57.17;25.02;;;;;;;4.17;100.00;102559.38;4981367;28;20035;-92
2023/01/03 05:48:05;;;;;;;62.00;25.35;;;;;;;4.13;100.00;102553.56;4985285;28;20026;-94
2023/01/03 05:50:32;;;;;;;50.97;23.67;;;;;;;3.96;100.00;102564.28;4981780;28;20034;-93
2023/01/03 05:52:57;;;;;;;52.83;22.58;;;;;;;3.95;100.00;102573.72;4980308;28;20120;-93
2023/01/03 05:55:23;;;;;;;53.25;22.52;;;;;;;3.27;100.00;102569.84;4984396;28;20121;-93
2023/01/03 05:57:48;;;;;;;58.47;24.65;;;;;;;3.46;100.00;102570.78;4997770;28;20066;-92
2023/01/03 06:00:14;;;;;;;50.85;21.85;;;;;;;3.53;100.00;102573.22;4982951;28;20038;-93
2023/01/03 06:02:40;;;;;;;50.78;24.38;;;;;;;3.51;100.00;102575.47;4988092;28;20377;-92
2023/01/03 06:05:06;;;;;;;56.75;22.73;;;;;;;3.42;100.00;102583.56;4982972;28;20022;-92
2023/01/03 06:07:32;;;;;;;72.88;20.77;;;;;;;3.30;100.00;102574.78;4983606;28;20030;-91
2023/01/03 06:09:59;;;;;;;73.55;24.67;;;;;;;3.42;100.00;102586.31;4984618;28;20026;-90
2023/01/03 06:12:28;;;;;;;68.00;22.77;;;;;;;3.45;100.00;102577.44;4986565;28;20033;-91
2023/01/03 06:14:53;;;;;;;54.10;21.15;;;;;;;3.62;100.00;102582.56;4990936;28;20052;-92
2023/01/03 06:20:03;;;;;;;73.72;25.02;;;;;;;3.50;100.00;102572.97;4980580;28;20053;-91
2023/01/03 06:22:28;;;;;;;95.25;26.55;;;;;;;3.49;100.00;102572.16;4984577;28;20046;-91
2023/01/03 06:24:53;;;;;;;79.85;23.73;;;;;;;3.39;100.00;102572.22;4987482;28;20033;-91
2023/01/03 06:27:19;;;;;;;76.63;23.85;;;;;;;3.60;100.00;102572.91;4984289;28;20030;-91
2023/01/03 06:29:44;;;;;;;81.55;28.23;;;;;;;3.69;100.00;102560.09;5000937;28;20054;-90
2023/01/03 06:32:10;;;;;;;89.10;30.33;;;;;;;3.80;100.00;102569.16;4984462;28;20030;-90
2023/01/03 06:34:36;;;;;;;80.60;28.83;;;;;;;3.89;100.00;102558.25;4984477;28;20034;-90
2023/01/03 06:37:02;;;;;;;95.90;32.40;;;;;;;4.05;100.00;102554.25;4995332;28;20027;-91
2023/01/03 06:39:28;;;;;;;83.00;30.38;;;;;;;4.06;100.00;102539.25;4980234;28;20042;-91
2023/01/03 06:41:53;;;;;;;98.53;30.85;;;;;;;4.09;100.00;102566.38;4980359;28;20025;-92
2023/01/03 06:44:18;;;;;;;133.35;36.35;;;;;;;3.82;100.00;102542.00;4982769;28;20126;-91
2023/01/03 06:55:00;;;;;;;105.65;31.40;;;;;;;4.25;100.00;102576.19;4982469;28;20089;-90
2023/01/03 06:57:26;;;;;;;105.20;35.95;;;;;;;4.35;100.00;102555.03;4981553;28;20022;-91
2023/01/03 06:59:51;;;;;;;109.30;38.65;;;;;;;4.30;100.00;102558.69;4985486;28;20023;-90
2023/01/03 07:02:17;;;;;;;116.13;37.70;;;;;;;3.99;100.00;102524.94;4982733;28;20019;-92
2023/01/03 07:04:42;;;;;;;110.13;33.85;;;;;;;4.32;100.00;102559.19;4984996;28;20077;-91
2023/01/03 07:07:08;;;;;;;106.95;34.42;;;;;;;4.30;100.00;102568.94;4981237;28;20094;-91
2023/01/03 07:09:36;;;;;;;106.65;37.83;;;;;;;4.45;100.00;102582.63;4983889;28;20041;-92
2023/01/03 07:13:57;;;;;;;114.45;37.65;;;;;;;4.30;100.00;102563.38;4985599;28;20060;-91
2023/01/03 07:14:46;;;;;;;113.13;38.30;;;;;;;4.26;100.00;102558.44;4981777;28;20034;-91
2023/01/03 07:17:15;;;;;;;118.43;38.88;;;;;;;4.37;100.00;102566.66;4984822;28;20027;-91
2023/01/03 07:19:40;;;;;;;116.70;34.92;;;;;;;4.34;100.00;102553.34;4982212;28;20054;-91
2023/01/03 07:22:05;;;;;;;110.25;40.00;;;;;;;4.28;100.00;102569.25;4983445;28;20132;-91
2023/01/03 07:24:31;;;;;;;115.43;41.47;;;;;;;4.36;100.00;102584.38;4984572;28;20031;-91
2023/01/03 07:26:56;;;;;;;115.18;40.17;;;;;;;4.30;100.00;102543.97;4977278;28;20038;-92
2023/01/03 07:29:21;;;;;;;120.82;41.40;;;;;;;4.50;100.00;102563.16;4986586;28;20030;-91
2023/01/03 07:31:47;;;;;;;118.88;38.63;;;;;;;4.32;100.00;102550.06;4971663;28;20113;-90
2023/01/03 07:34:13;;;;;;;124.65;42.65;;;;;;;4.39;100.00;102539.47;4999495;28;20026;-94
2023/01/03 07:36:38;;;;;;;129.13;43.35;;;;;;;4.39;100.00;102561.63;4987567;28;20049;-95
2023/01/03 07:39:04;;;;;;;135.00;43.83;;;;;;;4.36;100.00;102534.50;4982217;28;20026;-94
2023/01/03 07:44:13;;;;;;;133.55;44.67;;;;;;;4.50;100.00;102534.63;4985422;28;20065;-95
2023/01/03 07:46:39;;;;;;;122.65;40.50;;;;;;;4.78;100.00;102560.59;4982811;28;20038;-95
2023/01/03 07:49:05;;;;;;;124.75;40.78;;;;;;;4.66;100.00;102538.84;4983333;28;20026;-94
2023/01/03 07:51:32;;;;;;;126.93;45.50;;;;;;;4.43;100.00;102546.06;4985402;28;20022;-95
2023/01/03 07:53:57;;;;;;;122.13;40.35;;;;;;;4.54;100.00;102542.03;4985216;28;20042;-93
2023/01/03 07:56:24;;;;;;;133.45;43.40;;;;;;;4.54;100.00;102558.69;4988763;28;20027;-95
2023/01/03 07:58:50;;;;;;;129.65;44.58;;;;;;;4.64;100.00;102552.19;4984667;28;20037;-94
2023/01/03 08:02:04;;;;;;;124.70;43.00;;;;;;;4.67;100.00;102538.53;4993801;28;20122;-94
2023/01/03 08:05:19;;;;;;;139.18;44.75;;;;;;;4.53;100.00;102551.47;4984881;28;20034;-93
2023/01/03 08:14:58;;;;;;;132.85;44.22;;;;;;;4.46;100.00;102545.47;4962887;28;20093;-92
2023/01/03 08:18:24;;;;;;;;;;;;;;;;;;;;;
2023/01/03 08:21:25;;;;;;;169.05;51.45;;;;;;;4.63;100.00;102567.97;4914390;29;20103;-93
2023/01/03 08:33:39;;;;;;;147.23;46.53;;;;;;;4.58;100.00;102543.09;4878935;29;20482;-94
2023/01/03 08:36:47;;;;;;;149.77;51.28;;;;;;;4.87;100.00;102569.94;4922726;29;20028;-93
2023/01/03 08:43:08;;;;;;;;;;;;;;;;;;;;;
2023/01/03 08:46:06;;;;;;;145.93;48.63;;;;;;;4.73;100.00;102574.53;4841738;29;19920;-92
2023/01/03 08:53:11;;;;;;;;;;;;;;;;;;;;;
2023/01/03 09:13:01;;;;;;;157.80;52.08;;;;;;;4.35;100.00;102549.47;4771236;30;20051;-94
2023/01/03 09:15:30;;;;;;;166.73;56.97;;;;;;;4.35;100.00;102552.25;4799699;29;20046;-93
2023/01/03 09:18:36;;;;;;;149.38;51.10;;;;;;;4.33;100.00;102549.78;4826629;29;20035;-92
2023/01/03 09:21:49;;;;;;;147.32;45.65;;;;;;;4.38;100.00;102549.69;4838679;29;20072;-93
2023/01/03 09:24:33;;;;;;;157.30;51.47;;;;;;;4.45;100.00;102544.63;4832636;29;20057;-93
2023/01/03 09:31:43;;;;;;;;;;;;;;;;;;;;;
2023/01/03 09:34:05;;;;;;;160.88;51.53;;;;;;;4.50;100.00;102529.88;4903065;29;20089;-93
2023/01/03 09:36:31;;;;;;;157.75;46.35;;;;;;;4.77;100.00;102545.09;4887232;29;20061;-95
2023/01/03 09:38:57;;;;;;;149.05;49.80;;;;;;;4.67;100.00;102526.63;4990624;28;20035;-95
2023/01/03 09:41:26;;;;;;;148.90;49.17;;;;;;;4.62;100.00;102515.59;4980782;28;20049;-93
2023/01/03 09:44:01;;;;;;;151.18;46.55;;;;;;;4.54;100.00;102513.50;4994081;28;20037;-93
2023/01/03 09:46:28;;;;;;;142.30;46.97;;;;;;;4.66;100.00;102531.34;4993431;28;20026;-94
2023/01/03 09:48:55;;;;;;;127.22;44.78;;;;;;;4.72;100.00;102531.28;4994335;28;20038;-94
2023/01/03 10:06:09;;;;;;;122.32;44.60;;;;;;;4.94;100.00;102550.94;4995817;28;20036;-95
2023/01/03 10:08:48;;;;;;;128.75;43.75;;;;;;;4.94;100.00;102556.50;4983788;28;20873;-95
2023/01/03 10:11:43;;;;;;;119.30;41.50;;;;;;;5.03;100.00;102582.44;5008248;28;20038;-94
2023/01/03 10:14:36;;;;;;;116.80;41.65;;;;;;;4.99;100.00;102545.31;4983586;28;20411;-94
2023/01/03 10:17:20;;;;;;;129.35;45.85;;;;;;;6.60;100.00;102573.75;4984979;28;21922;-90
2023/01/03 10:20:21;;;;;;;106.30;37.63;;;;;;;5.74;100.00;102571.41;5005306;28;20478;-89
2023/01/03 10:22:47;;;;;;;98.57;35.13;;;;;;;5.44;100.00;102568.00;5001008;28;20070;-89
2023/01/03 10:25:20;;;;;;;87.13;33.70;;;;;;;5.29;100.00;102546.00;4992867;28;20030;-90
2023/01/03 10:27:58;;;;;;;87.43;32.38;;;;;;;5.33;100.00;102541.50;4999407;28;20023;-88
2023/01/03 10:31:02;;;;;;;86.85;33.72;;;;;;;5.34;100.00;102532.03;4993930;28;20495;-88
2023/01/03 10:33:32;;;;;;;90.40;33.78;;;;;;;5.44;100.00;102556.03;5004221;28;20029;-89
2023/01/03 10:35:58;;;;;;;84.78;33.90;;;;;;;5.52;100.00;102554.53;4994991;28;20032;-89
2023/01/03 10:38:24;;;;;;;79.20;30.80;;;;;;;5.47;100.00;102545.16;4983283;28;20470;-89
2023/01/03 10:40:58;;;;;;;89.28;31.73;;;;;;;5.41;100.00;102543.59;4993855;28;20038;-89
2023/01/03 10:44:02;;;;;;;83.20;29.75;;;;;;;5.49;100.00;102534.56;5000296;28;20030;-89
2023/01/03 10:46:29;;;;;;;90.32;32.88;;;;;;;5.57;100.00;102529.47;4952288;28;20129;-89
2023/01/03 10:49:12;;;;;;;83.95;34.97;;;;;;;5.41;100.00;102501.94;4987019;28;20077;-90
2023/01/03 10:51:59;;;;;;;84.82;30.90;;;;;;;5.50;100.00;102510.38;4994137;28;20061;-91
2023/01/03 10:54:28;;;;;;;93.97;31.45;;;;;;;5.57;100.00;102518.34;5002804;28;20034;-90
2023/01/03 10:56:54;;;;;;;87.97;32.80;;;;;;;5.46;100.00;102489.91;4995792;28;20041;-91
2023/01/03 10:59:25;;;;;;;108.03;32.80;;;;;;;5.59;100.00;102532.78;4995708;28;20050;-89
2023/01/03 11:02:17;;;;;;;81.35;32.50;;;;;;;5.62;100.00;102526.59;4991615;28;20120;-89
2023/01/03 11:04:45;;;;;;;86.38;31.20;;;;;;;5.55;100.00;102515.88;4986379;28;20069;-90
2023/01/03 11:07:15;;;;;;;92.35;32.45;;;;;;;5.61;100.00;102520.22;4996378;28;20034;-90
2023/01/03 11:09:51;;;;;;;93.38;30.55;;;;;;;5.77;100.00;102534.66;4993079;28;20066;-91
2023/01/03 11:12:37;;;;;;;92.88;32.70;;;;;;;5.65;100.00;102512.09;5000686;28;20154;-92
2023/01/03 11:15:31;;;;;;;91.90;32.22;;;;;;;5.80;100.00;102539.63;4987214;28;20034;-91
2023/01/03 11:17:59;;;;;;;88.75;32.47;;;;;;;5.67;100.00;102501.50;4986955;28;20066;-92
2023/01/03 11:20:55;;;;;;;101.75;30.90;;;;;;;5.83;100.00;102533.44;4992223;28;20053;-92
2023/01/03 11:23:25;;;;;;;97.57;33.30;;;;;;;5.89;100.00;102535.00;5000704;28;20110;-91
2023/01/03 11:26:08;;;;;;;92.10;31.13;;;;;;;5.91;100.00;102535.53;4998346;28;20038;-91
2023/01/03 11:29:00;;;;;;;92.03;33.65;;;;;;;5.80;100.00;102527.69;5002276;28;20046;-92
2023/01/03 11:32:01;;;;;;;98.03;34.10;;;;;;;5.89;100.00;102532.22;5005621;28;20030;-92
2023/01/03 11:34:57;;;;;;;91.78;33.05;;;;;;;5.90;100.00;102531.09;4988710;28;20137;-92
2023/01/03 11:38:06;;;;;;;94.85;33.42;;;;;;;5.88;100.00;102527.81;4987076;28;20105;-91
2023/01/03 11:40:59;;;;;;;97.72;34.30;;;;;;;5.83;100.00;102516.78;4994541;28;20029;-92
2023/01/03 11:43:30;;;;;;;99.47;32.45;;;;;;;5.93;100.00;102528.84;4986385;28;20116;-91
2023/01/03 11:46:43;;;;;;;96.78;31.67;;;;;;;6.05;100.00;102520.84;4981809;28;20184;-90
2023/01/03 11:49:32;;;;;;;95.93;32.40;;;;;;;6.10;100.00;102521.59;4983654;28;20134;-91
2023/01/03 11:52:20;;;;;;;105.95;37.30;;;;;;;6.80;100.00;102516.00;4989095;28;20462;-92
2023/01/03 11:54:56;;;;;;;97.53;31.92;;;;;;;6.37;100.00;102513.59;4982361;28;20060;-93
2023/01/03 11:57:39;;;;;;;98.32;32.60;;;;;;;6.17;100.00;102503.69;4980760;28;20049;-92
2023/01/03 12:00:16;;;;;;;111.50;37.38;;;;;;;6.16;100.00;102516.75;4990424;28;20437;-91
2023/01/03 12:03:01;;;;;;;93.97;30.63;;;;;;;6.14;100.00;102491.22;4983444;28;20046;-90
2023/01/03 12:06:03;;;;;;;90.22;29.73;;;;;;;6.04;100.00;102480.28;5002747;28;20046;-91
2023/01/03 12:08:40;;;;;;;85.78;29.30;;;;;;;6.15;100.00;102498.41;4981885;28;20047;-90
2023/01/03 12:11:15;;;;;;;109.30;36.58;;;;;;;6.15;100.00;102492.03;4991137;28;20031;-91
2023/01/03 12:13:44;;;;;;;88.03;31.23;;;;;;;6.22;100.00;102496.06;4982743;28;20038;-91
2023/01/03 12:16:22;;;;;;;93.90;30.30;;;;;;;6.25;100.00;102492.66;4982830;28;20030;-91
2023/01/03 12:19:18;;;;;;;86.20;28.63;;;;;;;6.30;100.00;102492.56;4990978;28;20385;-91
2023/01/03 12:21:51;;;;;;;93.45;27.80;;;;;;;6.25;100.00;102498.22;5001302;28;20498;-90
2023/01/03 12:24:22;;;;;;;86.00;26.60;;;;;;;6.27;100.00;102498.72;5000519;28;20030;-90
2023/01/03 12:26:54;;;;;;;91.05;29.52;;;;;;;6.26;100.00;102485.97;4995506;28;20421;-91
2023/01/03 12:29:43;;;;;;;82.95;26.38;;;;;;;6.34;100.00;102487.19;5003118;28;20089;-91
2023/01/03 12:32:15;;;;;;;82.05;27.40;;;;;;;6.39;100.00;102472.34;5004256;28;20485;-92
2023/01/03 12:34:59;;;;;;;83.67;26.03;;;;;;;6.45;100.00;102465.53;5006734;28;20427;-92
2023/01/03 12:37:29;;;;;;;76.43;24.73;;;;;;;6.45;100.00;102455.25;5006592;28;20296;-91
2023/01/03 12:40:08;;;;;;;78.38;27.55;;;;;;;6.49;100.00;102461.00;4989457;28;20183;-91
2023/01/03 12:42:43;;;;;;;78.93;24.20;;;;;;;6.42;100.00;102432.81;5005298;28;20022;-89
2023/01/03 12:45:36;;;;;;;72.25;23.85;;;;;;;6.56;100.00;102450.28;4992952;28;20088;-91
2023/01/03 12:48:17;;;;;;;77.00;22.85;;;;;;;6.50;100.00;102426.50;4990279;28;20046;-91
2023/01/03 12:50:48;;;;;;;71.70;23.90;;;;;;;6.58;100.00;102430.50;4991307;28;20030;-91
2023/01/03 12:53:37;;;;;;;74.95;23.45;;;;;;;6.71;100.00;102436.03;4999899;28;20109;-90
2023/01/03 12:56:55;;;;;;;81.72;25.55;;;;;;;6.61;100.00;102405.66;4997265;28;20088;-91
2023/01/03 12:59:30;;;;;;;72.32;26.38;;;;;;;6.70;100.00;102434.41;5011686;28;20072;-91
2023/01/03 13:02:21;;;;;;;73.30;23.42;;;;;;;6.66;100.00;102426.97;5013598;28;20034;-92
2023/01/03 13:04:59;;;;;;;70.25;25.52;;;;;;;6.64;100.00;102421.75;4997857;28;20128;-90
2023/01/03 13:07:33;;;;;;;66.05;22.77;;;;;;;6.57;100.00;102396.28;4995864;28;20026;-91
2023/01/03 13:10:15;;;;;;;75.15;23.67;;;;;;;6.74;100.00;102433.75;4995254;28;20042;-91
2023/01/03 13:12:52;;;;;;;81.22;25.50;;;;;;;6.80;100.00;102432.50;4992489;28;20026;-91
2023/01/03 13:15:26;;;;;;;68.43;22.27;;;;;;;6.59;100.00;102405.13;4997516;28;20033;-90
2023/01/03 13:18:20;;;;;;;78.03;24.88;;;;;;;6.79;100.00;102430.84;5011991;28;20030;-90
2023/01/03 13:20:56;;;;;;;75.18;23.70;;;;;;;6.74;100.00;102417.06;5005664;28;20034;-90
2023/01/03 13:23:40;;;;;;;65.50;23.42;;;;;;;6.82;100.00;102436.63;4996224;28;20026;-90
2023/01/03 13:26:20;;;;;;;64.20;25.38;;;;;;;6.68;100.00;102414.41;5011046;28;20058;-91